< < Back
Terminal Aerodrome Forecast


Current Version              Previous Versions:   1  2  3  4  5  6  7  8  9  

Terminal Aerodrome Forecast

901
FTUS44 KOHX 291100
TAFBNA
TAF
KBNA 291126Z 2912/3012 36007KT P6SM FEW150
     FM291600 36012KT P6SM SCT050
     FM300100 34003KT P6SM FEW060=

Latest METAR

108
SAUS70 KWBC 291200 RRB
MTRBNA
METAR KBNA 291153Z 34008KT 10SM FEW140 17/11 A3008 RMK AO2 SLP181
T01670106 10200 20161 53013


USA.gov is the U.S. government's official web portal to all federal, state and local government web resources and services.